Fairview, Illinois
Current Conditions -  °F | °C
As of 2:54 AM on Saturday 20 Dec 2014 (Local Time) from KPIA Reporting Station
Haze Haze  
Wind Chill: 28°   Ceiling: 5500
Heat Index: 28°   Visibility: 5mi
Dew Point: 24°   Wind: 3mph
Humidity: 85%   Direction: 60°ENE
Pressure: 30.27"   Gusts: NA
Location:  40.63°N, 90.16°W
Report Text: KPIA 200854Z 06003KT 5SM BR OVC055 M02/M04 A3027 RMK AO2 SLP259 T10221044 55002
Loading
Personal Weather Stations






























Interactive Weather Map New forecast layout! Learn more

10-Day Weather Forecast

Advertisements
Track Severe Weather on mobile